Terminal Aerodrome Forecast
Issued by NWS

Home | Current Version | Previous Version | Graphics & Text | Print | Product List | Glossary On
Versions: 1 2 3 4 5 6 7 8 9 10 11 12 13 14 15 16 17
000
FTUS43 KBIS 311730
TAFJMS
TAF
KJMS 311730Z 3118/0118 31016G24KT P6SM SCT250
     FM010000 27006KT P6SM FEW250
     FM011500 18006KT P6SM FEW250=

USA.gov is the U.S. government's official web portal to all federal, state and local government web resources and services.